sensor_id;sensor_type;location;lat;lon;timestamp;P1;durP1;ratioP1;P2;durP2;ratioP2
10056;SDS011;5068;51.286;7.518;2023-09-07T00:00:01;2.95;;;1.70;;
10056;SDS011;5068;51.286;7.518;2023-09-07T00:01:44;2.70;;;1.58;;
10056;SDS011;5068;51.286;7.518;2023-09-07T00:03:18;3.47;;;1.58;;
10056;SDS011;5068;51.286;7.518;2023-09-07T00:04:50;3.97;;;1.50;;
10056;SDS011;5068;51.286;7.518;2023-09-07T00:06:24;2.20;;;1.45;;
10056;SDS011;5068;51.286;7.518;2023-09-07T00:07:57;3.50;;;1.60;;
10056;SDS011;5068;51.286;7.518;2023-09-07T00:09:30;3.88;;;1.58;;
10056;SDS011;5068;51.286;7.518;2023-09-07T00:11:04;2.45;;;1.60;;
10056;SDS011;5068;51.286;7.518;2023-09-07T00:12:38;2.03;;;1.50;;
10056;SDS011;5068;51.286;7.518;2023-09-07T00:14:12;1.70;;;1.40;;
10056;SDS011;5068;51.286;7.518;2023-09-07T00:15:44;2.42;;;1.95;;
10056;SDS011;5068;51.286;7.518;2023-09-07T00:17:19;2.28;;;1.52;;
10056;SDS011;5068;51.286;7.518;2023-09-07T00:18:52;2.33;;;1.48;;
10056;SDS011;5068;51.286;7.518;2023-09-07T00:20:26;7.95;;;2.13;;
10056;SDS011;5068;51.286;7.518;2023-09-07T00:21:59;3.80;;;1.65;;
10056;SDS011;5068;51.286;7.518;2023-09-07T00:23:33;2.47;;;1.50;;
10056;SDS011;5068;51.286;7.518;2023-09-07T00:25:07;1.98;;;1.23;;
10056;SDS011;5068;51.286;7.518;2023-09-07T00:26:40;2.53;;;1.50;;
10056;SDS011;5068;51.286;7.518;2023-09-07T00:28:14;2.40;;;1.60;;
10056;SDS011;5068;51.286;7.518;2023-09-07T00:29:48;2.15;;;1.38;;
10056;SDS011;5068;51.286;7.518;2023-09-07T00:31:20;1.95;;;1.52;;
10056;SDS011;5068;51.286;7.518;2023-09-07T00:32:55;2.53;;;1.33;;
10056;SDS011;5068;51.286;7.518;2023-09-07T00:34:28;2.22;;;1.63;;
10056;SDS011;5068;51.286;7.518;2023-09-07T00:36:02;1.70;;;1.30;;
10056;SDS011;5068;51.286;7.518;2023-09-07T00:37:37;5.35;;;1.55;;
10056;SDS011;5068;51.286;7.518;2023-09-07T00:39:11;2.65;;;1.58;;
10056;SDS011;5068;51.286;7.518;2023-09-07T00:40:44;2.65;;;1.58;;
10056;SDS011;5068;51.286;7.518;2023-09-07T00:42:18;3.63;;;1.50;;
10056;SDS011;5068;51.286;7.518;2023-09-07T00:43:50;2.05;;;1.60;;
10056;SDS011;5068;51.286;7.518;2023-09-07T00:45:24;3.00;;;1.70;;
10056;SDS011;5068;51.286;7.518;2023-09-07T00:46:57;2.35;;;1.50;;
10056;SDS011;5068;51.286;7.518;2023-09-07T00:48:32;2.20;;;1.60;;
10056;SDS011;5068;51.286;7.518;2023-09-07T00:50:05;2.13;;;1.48;;
10056;SDS011;5068;51.286;7.518;2023-09-07T00:51:40;2.78;;;1.33;;
10056;SDS011;5068;51.286;7.518;2023-09-07T00:53:13;2.05;;;1.23;;
10056;SDS011;5068;51.286;7.518;2023-09-07T00:54:49;2.15;;;1.58;;
10056;SDS011;5068;51.286;7.518;2023-09-07T00:56:21;2.17;;;1.77;;
10056;SDS011;5068;51.286;7.518;2023-09-07T00:57:57;2.35;;;1.42;;
10056;SDS011;5068;51.286;7.518;2023-09-07T00:59:31;3.75;;;1.80;;
10056;SDS011;5068;51.286;7.518;2023-09-07T01:01:05;2.80;;;1.60;;
10056;SDS011;5068;51.286;7.518;2023-09-07T01:02:38;2.22;;;1.60;;
10056;SDS011;5068;51.286;7.518;2023-09-07T01:04:15;3.03;;;1.70;;
10056;SDS011;5068;51.286;7.518;2023-09-07T01:05:50;5.00;;;1.52;;
10056;SDS011;5068;51.286;7.518;2023-09-07T01:07:32;3.45;;;1.70;;
10056;SDS011;5068;51.286;7.518;2023-09-07T01:09:15;4.90;;;1.55;;
10056;SDS011;5068;51.286;7.518;2023-09-07T01:10:54;2.92;;;1.33;;
10056;SDS011;5068;51.286;7.518;2023-09-07T01:12:27;3.60;;;1.70;;
10056;SDS011;5068;51.286;7.518;2023-09-07T01:14:00;2.30;;;1.40;;
10056;SDS011;5068;51.286;7.518;2023-09-07T01:15:35;3.75;;;1.48;;
10056;SDS011;5068;51.286;7.518;2023-09-07T01:17:09;3.65;;;1.70;;
10056;SDS011;5068;51.286;7.518;2023-09-07T01:18:44;2.70;;;1.80;;
10056;SDS011;5068;51.286;7.518;2023-09-07T01:20:19;3.22;;;1.42;;
10056;SDS011;5068;51.286;7.518;2023-09-07T01:21:56;1.80;;;1.60;;
10056;SDS011;5068;51.286;7.518;2023-09-07T01:23:31;2.17;;;1.60;;
10056;SDS011;5068;51.286;7.518;2023-09-07T01:25:05;4.10;;;1.70;;
10056;SDS011;5068;51.286;7.518;2023-09-07T01:26:40;2.22;;;1.40;;
10056;SDS011;5068;51.286;7.518;2023-09-07T01:28:14;4.35;;;1.80;;
10056;SDS011;5068;51.286;7.518;2023-09-07T01:29:48;3.97;;;1.40;;
10056;SDS011;5068;51.286;7.518;2023-09-07T01:31:22;4.60;;;1.40;;
10056;SDS011;5068;51.286;7.518;2023-09-07T01:32:56;3.22;;;1.70;;
10056;SDS011;5068;51.286;7.518;2023-09-07T01:34:28;3.17;;;1.83;;
10056;SDS011;5068;51.286;7.518;2023-09-07T01:36:02;3.10;;;1.52;;
10056;SDS011;5068;51.286;7.518;2023-09-07T01:37:37;3.75;;;1.70;;
10056;SDS011;5068;51.286;7.518;2023-09-07T01:39:11;2.50;;;1.60;;
10056;SDS011;5068;51.286;7.518;2023-09-07T01:40:45;2.58;;;1.70;;
10056;SDS011;5068;51.286;7.518;2023-09-07T01:42:19;2.95;;;1.95;;
10056;SDS011;5068;51.286;7.518;2023-09-07T01:43:53;4.30;;;1.60;;
10056;SDS011;5068;51.286;7.518;2023-09-07T01:45:27;2.60;;;1.48;;
10056;SDS011;5068;51.286;7.518;2023-09-07T01:47:00;2.00;;;1.50;;
10056;SDS011;5068;51.286;7.518;2023-09-07T01:48:33;3.15;;;2.00;;
10056;SDS011;5068;51.286;7.518;2023-09-07T01:50:07;3.40;;;1.80;;
10056;SDS011;5068;51.286;7.518;2023-09-07T01:51:41;5.35;;;1.60;;
10056;SDS011;5068;51.286;7.518;2023-09-07T01:53:16;2.22;;;1.50;;
10056;SDS011;5068;51.286;7.518;2023-09-07T01:54:49;3.45;;;1.75;;
10056;SDS011;5068;51.286;7.518;2023-09-07T01:56:23;4.03;;;2.15;;
10056;SDS011;5068;51.286;7.518;2023-09-07T01:57:55;1.98;;;1.42;;
10056;SDS011;5068;51.286;7.518;2023-09-07T01:59:30;2.40;;;1.75;;
10056;SDS011;5068;51.286;7.518;2023-09-07T02:01:02;2.92;;;1.85;;
10056;SDS011;5068;51.286;7.518;2023-09-07T02:02:36;4.78;;;1.90;;
10056;SDS011;5068;51.286;7.518;2023-09-07T02:04:09;5.50;;;1.70;;
10056;SDS011;5068;51.286;7.518;2023-09-07T02:05:43;3.40;;;1.67;;
10056;SDS011;5068;51.286;7.518;2023-09-07T02:07:17;3.33;;;1.58;;
10056;SDS011;5068;51.286;7.518;2023-09-07T02:08:52;2.55;;;1.60;;
10056;SDS011;5068;51.286;7.518;2023-09-07T02:10:26;2.90;;;1.80;;
10056;SDS011;5068;51.286;7.518;2023-09-07T02:11:59;2.22;;;1.50;;
10056;SDS011;5068;51.286;7.518;2023-09-07T02:13:33;3.00;;;1.85;;
10056;SDS011;5068;51.286;7.518;2023-09-07T02:15:09;3.08;;;1.67;;
10056;SDS011;5068;51.286;7.518;2023-09-07T02:16:43;2.10;;;1.80;;
10056;SDS011;5068;51.286;7.518;2023-09-07T02:18:15;3.78;;;1.95;;
10056;SDS011;5068;51.286;7.518;2023-09-07T02:19:49;3.63;;;1.50;;
10056;SDS011;5068;51.286;7.518;2023-09-07T02:21:21;3.15;;;1.92;;
10056;SDS011;5068;51.286;7.518;2023-09-07T02:22:55;3.13;;;1.60;;
10056;SDS011;5068;51.286;7.518;2023-09-07T02:24:30;2.95;;;1.90;;
10056;SDS011;5068;51.286;7.518;2023-09-07T02:26:03;2.33;;;1.63;;
10056;SDS011;5068;51.286;7.518;2023-09-07T02:27:37;4.30;;;2.00;;
10056;SDS011;5068;51.286;7.518;2023-09-07T02:29:10;2.92;;;1.75;;
10056;SDS011;5068;51.286;7.518;2023-09-07T02:30:44;2.60;;;1.58;;
10056;SDS011;5068;51.286;7.518;2023-09-07T02:32:17;2.13;;;1.60;;
10056;SDS011;5068;51.286;7.518;2023-09-07T02:33:50;3.33;;;2.05;;
10056;SDS011;5068;51.286;7.518;2023-09-07T02:35:23;3.60;;;1.63;;
10056;SDS011;5068;51.286;7.518;2023-09-07T02:36:57;2.78;;;1.85;;
10056;SDS011;5068;51.286;7.518;2023-09-07T02:38:30;4.10;;;2.00;;
10056;SDS011;5068;51.286;7.518;2023-09-07T02:40:06;4.07;;;1.73;;
10056;SDS011;5068;51.286;7.518;2023-09-07T02:41:40;2.45;;;1.63;;
10056;SDS011;5068;51.286;7.518;2023-09-07T02:43:14;3.42;;;2.00;;
10056;SDS011;5068;51.286;7.518;2023-09-07T02:44:49;3.05;;;1.83;;
10056;SDS011;5068;51.286;7.518;2023-09-07T02:46:23;2.88;;;1.80;;
10056;SDS011;5068;51.286;7.518;2023-09-07T02:47:55;1.98;;;1.50;;
10056;SDS011;5068;51.286;7.518;2023-09-07T02:49:29;3.13;;;1.80;;
10056;SDS011;5068;51.286;7.518;2023-09-07T02:51:03;2.17;;;1.70;;
10056;SDS011;5068;51.286;7.518;2023-09-07T02:52:35;2.78;;;1.73;;
10056;SDS011;5068;51.286;7.518;2023-09-07T02:54:09;2.33;;;1.60;;
10056;SDS011;5068;51.286;7.518;2023-09-07T02:55:44;3.83;;;1.95;;
10056;SDS011;5068;51.286;7.518;2023-09-07T02:57:16;2.58;;;1.65;;
10056;SDS011;5068;51.286;7.518;2023-09-07T02:58:50;5.30;;;2.05;;
10056;SDS011;5068;51.286;7.518;2023-09-07T03:00:23;2.22;;;1.67;;
10056;SDS011;5068;51.286;7.518;2023-09-07T03:01:57;3.45;;;1.83;;
10056;SDS011;5068;51.286;7.518;2023-09-07T03:03:31;2.35;;;1.90;;
10056;SDS011;5068;51.286;7.518;2023-09-07T03:05:04;2.78;;;1.80;;
10056;SDS011;5068;51.286;7.518;2023-09-07T03:06:38;2.53;;;1.80;;
10056;SDS011;5068;51.286;7.518;2023-09-07T03:08:11;3.13;;;1.85;;
10056;SDS011;5068;51.286;7.518;2023-09-07T03:09:45;3.28;;;1.80;;
10056;SDS011;5068;51.286;7.518;2023-09-07T03:11:20;2.90;;;2.05;;
10056;SDS011;5068;51.286;7.518;2023-09-07T03:12:54;4.00;;;1.88;;
10056;SDS011;5068;51.286;7.518;2023-09-07T03:14:27;2.35;;;1.70;;
10056;SDS011;5068;51.286;7.518;2023-09-07T03:16:00;2.38;;;1.77;;
10056;SDS011;5068;51.286;7.518;2023-09-07T03:17:36;2.10;;;1.60;;
10056;SDS011;5068;51.286;7.518;2023-09-07T03:19:08;2.78;;;1.95;;
10056;SDS011;5068;51.286;7.518;2023-09-07T03:20:42;2.47;;;1.88;;
10056;SDS011;5068;51.286;7.518;2023-09-07T03:22:15;4.90;;;2.10;;
10056;SDS011;5068;51.286;7.518;2023-09-07T03:23:48;2.50;;;1.75;;
10056;SDS011;5068;51.286;7.518;2023-09-07T03:25:21;2.45;;;1.98;;
10056;SDS011;5068;51.286;7.518;2023-09-07T03:26:56;3.67;;;2.15;;
10056;SDS011;5068;51.286;7.518;2023-09-07T03:28:30;2.38;;;1.95;;
10056;SDS011;5068;51.286;7.518;2023-09-07T03:31:40;3.05;;;2.10;;
10056;SDS011;5068;51.286;7.518;2023-09-07T03:33:13;2.22;;;1.77;;
10056;SDS011;5068;51.286;7.518;2023-09-07T03:34:46;2.70;;;2.05;;
10056;SDS011;5068;51.286;7.518;2023-09-07T03:36:19;3.80;;;1.98;;
10056;SDS011;5068;51.286;7.518;2023-09-07T03:37:53;2.72;;;1.77;;
10056;SDS011;5068;51.286;7.518;2023-09-07T03:39:26;2.47;;;2.00;;
10056;SDS011;5068;51.286;7.518;2023-09-07T03:41:00;3.20;;;2.00;;
10056;SDS011;5068;51.286;7.518;2023-09-07T03:42:34;4.18;;;1.92;;
10056;SDS011;5068;51.286;7.518;2023-09-07T03:44:09;2.22;;;1.55;;
10056;SDS011;5068;51.286;7.518;2023-09-07T03:45:42;3.45;;;1.98;;
10056;SDS011;5068;51.286;7.518;2023-09-07T03:47:15;3.80;;;1.95;;
10056;SDS011;5068;51.286;7.518;2023-09-07T03:48:49;3.33;;;2.33;;
10056;SDS011;5068;51.286;7.518;2023-09-07T03:50:22;4.00;;;1.85;;
10056;SDS011;5068;51.286;7.518;2023-09-07T03:51:58;2.17;;;1.80;;
10056;SDS011;5068;51.286;7.518;2023-09-07T03:53:32;7.25;;;2.20;;
10056;SDS011;5068;51.286;7.518;2023-09-07T03:55:05;2.88;;;2.10;;
10056;SDS011;5068;51.286;7.518;2023-09-07T03:56:41;3.53;;;2.10;;
10056;SDS011;5068;51.286;7.518;2023-09-07T03:58:15;3.28;;;1.98;;
10056;SDS011;5068;51.286;7.518;2023-09-07T03:59:49;2.90;;;2.10;;
10056;SDS011;5068;51.286;7.518;2023-09-07T04:01:21;3.55;;;1.98;;
10056;SDS011;5068;51.286;7.518;2023-09-07T04:02:55;3.50;;;2.10;;
10056;SDS011;5068;51.286;7.518;2023-09-07T04:04:28;3.78;;;2.10;;
10056;SDS011;5068;51.286;7.518;2023-09-07T04:06:02;5.22;;;2.03;;
10056;SDS011;5068;51.286;7.518;2023-09-07T04:07:36;2.85;;;2.13;;
10056;SDS011;5068;51.286;7.518;2023-09-07T04:09:09;4.10;;;2.28;;
10056;SDS011;5068;51.286;7.518;2023-09-07T04:10:43;3.53;;;2.42;;
10056;SDS011;5068;51.286;7.518;2023-09-07T04:12:16;2.90;;;2.00;;
10056;SDS011;5068;51.286;7.518;2023-09-07T04:13:51;3.63;;;2.13;;
10056;SDS011;5068;51.286;7.518;2023-09-07T04:15:24;4.25;;;2.00;;
10056;SDS011;5068;51.286;7.518;2023-09-07T04:16:58;2.95;;;1.95;;
10056;SDS011;5068;51.286;7.518;2023-09-07T04:18:31;3.78;;;2.13;;
10056;SDS011;5068;51.286;7.518;2023-09-07T04:20:05;3.30;;;2.00;;
10056;SDS011;5068;51.286;7.518;2023-09-07T04:21:39;3.13;;;2.00;;
10056;SDS011;5068;51.286;7.518;2023-09-07T04:23:13;2.78;;;2.05;;
10056;SDS011;5068;51.286;7.518;2023-09-07T04:24:47;6.10;;;2.00;;
10056;SDS011;5068;51.286;7.518;2023-09-07T04:26:21;2.50;;;1.85;;
10056;SDS011;5068;51.286;7.518;2023-09-07T04:27:55;2.65;;;2.10;;
10056;SDS011;5068;51.286;7.518;2023-09-07T04:29:29;3.95;;;2.05;;
10056;SDS011;5068;51.286;7.518;2023-09-07T04:31:03;3.33;;;2.38;;
10056;SDS011;5068;51.286;7.518;2023-09-07T04:32:37;3.55;;;2.03;;
10056;SDS011;5068;51.286;7.518;2023-09-07T04:34:11;3.50;;;2.25;;
10056;SDS011;5068;51.286;7.518;2023-09-07T04:35:43;3.17;;;2.00;;
10056;SDS011;5068;51.286;7.518;2023-09-07T04:37:17;2.53;;;1.73;;
10056;SDS011;5068;51.286;7.518;2023-09-07T04:38:49;2.80;;;1.80;;
10056;SDS011;5068;51.286;7.518;2023-09-07T04:40:23;3.20;;;1.83;;
10056;SDS011;5068;51.286;7.518;2023-09-07T04:41:56;3.42;;;2.00;;
10056;SDS011;5068;51.286;7.518;2023-09-07T04:43:30;2.83;;;2.08;;
10056;SDS011;5068;51.286;7.518;2023-09-07T04:45:04;3.78;;;2.40;;
10056;SDS011;5068;51.286;7.518;2023-09-07T04:46:39;2.90;;;2.30;;
10056;SDS011;5068;51.286;7.518;2023-09-07T04:48:12;2.80;;;1.67;;
10056;SDS011;5068;51.286;7.518;2023-09-07T04:49:48;3.50;;;1.88;;
10056;SDS011;5068;51.286;7.518;2023-09-07T04:51:24;2.63;;;1.92;;
10056;SDS011;5068;51.286;7.518;2023-09-07T04:52:58;2.15;;;1.95;;
10056;SDS011;5068;51.286;7.518;2023-09-07T04:54:32;3.08;;;2.28;;
10056;SDS011;5068;51.286;7.518;2023-09-07T04:56:05;6.80;;;2.08;;
10056;SDS011;5068;51.286;7.518;2023-09-07T04:57:42;4.70;;;2.10;;
10056;SDS011;5068;51.286;7.518;2023-09-07T04:59:15;3.10;;;2.05;;
10056;SDS011;5068;51.286;7.518;2023-09-07T05:00:50;3.03;;;2.00;;
10056;SDS011;5068;51.286;7.518;2023-09-07T05:02:24;3.67;;;1.98;;
10056;SDS011;5068;51.286;7.518;2023-09-07T05:03:58;4.13;;;2.15;;
10056;SDS011;5068;51.286;7.518;2023-09-07T05:05:31;4.57;;;2.10;;
10056;SDS011;5068;51.286;7.518;2023-09-07T05:07:05;3.63;;;2.22;;
10056;SDS011;5068;51.286;7.518;2023-09-07T05:08:38;3.15;;;2.33;;
10056;SDS011;5068;51.286;7.518;2023-09-07T05:10:11;3.90;;;2.20;;
10056;SDS011;5068;51.286;7.518;2023-09-07T05:11:45;2.45;;;1.85;;
10056;SDS011;5068;51.286;7.518;2023-09-07T05:13:18;3.28;;;2.00;;
10056;SDS011;5068;51.286;7.518;2023-09-07T05:14:52;4.72;;;2.05;;
10056;SDS011;5068;51.286;7.518;2023-09-07T05:16:26;3.72;;;2.33;;
10056;SDS011;5068;51.286;7.518;2023-09-07T05:17:59;2.90;;;2.05;;
10056;SDS011;5068;51.286;7.518;2023-09-07T05:19:32;3.42;;;2.20;;
10056;SDS011;5068;51.286;7.518;2023-09-07T05:21:12;3.08;;;2.17;;
10056;SDS011;5068;51.286;7.518;2023-09-07T05:22:47;2.55;;;2.05;;
10056;SDS011;5068;51.286;7.518;2023-09-07T05:24:19;2.80;;;2.05;;
10056;SDS011;5068;51.286;7.518;2023-09-07T05:25:53;2.72;;;2.03;;
10056;SDS011;5068;51.286;7.518;2023-09-07T05:27:29;2.50;;;1.70;;
10056;SDS011;5068;51.286;7.518;2023-09-07T05:29:03;2.35;;;2.13;;
10056;SDS011;5068;51.286;7.518;2023-09-07T05:30:36;3.97;;;2.03;;
10056;SDS011;5068;51.286;7.518;2023-09-07T05:32:12;2.90;;;2.15;;
10056;SDS011;5068;51.286;7.518;2023-09-07T05:33:46;3.40;;;2.10;;
10056;SDS011;5068;51.286;7.518;2023-09-07T05:35:19;3.17;;;2.30;;
10056;SDS011;5068;51.286;7.518;2023-09-07T05:36:52;3.17;;;1.95;;
10056;SDS011;5068;51.286;7.518;2023-09-07T05:38:25;4.45;;;2.45;;
10056;SDS011;5068;51.286;7.518;2023-09-07T05:40:02;2.90;;;2.00;;
10056;SDS011;5068;51.286;7.518;2023-09-07T05:41:36;3.55;;;2.08;;
10056;SDS011;5068;51.286;7.518;2023-09-07T05:43:10;3.60;;;2.30;;
10056;SDS011;5068;51.286;7.518;2023-09-07T05:44:43;4.32;;;2.08;;
10056;SDS011;5068;51.286;7.518;2023-09-07T05:46:17;2.60;;;2.05;;
10056;SDS011;5068;51.286;7.518;2023-09-07T05:47:53;2.80;;;1.88;;
10056;SDS011;5068;51.286;7.518;2023-09-07T05:49:25;3.60;;;2.10;;
10056;SDS011;5068;51.286;7.518;2023-09-07T05:50:59;3.25;;;2.15;;
10056;SDS011;5068;51.286;7.518;2023-09-07T05:52:32;4.28;;;2.50;;
10056;SDS011;5068;51.286;7.518;2023-09-07T05:54:05;3.25;;;2.30;;
10056;SDS011;5068;51.286;7.518;2023-09-07T05:55:39;3.10;;;2.10;;
10056;SDS011;5068;51.286;7.518;2023-09-07T05:57:12;3.75;;;2.67;;
10056;SDS011;5068;51.286;7.518;2023-09-07T05:58:45;2.88;;;2.03;;
10056;SDS011;5068;51.286;7.518;2023-09-07T06:00:19;4.20;;;2.28;;
10056;SDS011;5068;51.286;7.518;2023-09-07T06:01:53;2.92;;;2.33;;
10056;SDS011;5068;51.286;7.518;2023-09-07T06:03:28;5.10;;;2.22;;
10056;SDS011;5068;51.286;7.518;2023-09-07T06:05:02;3.10;;;2.03;;
10056;SDS011;5068;51.286;7.518;2023-09-07T06:06:35;3.00;;;2.05;;
10056;SDS011;5068;51.286;7.518;2023-09-07T06:08:09;2.70;;;2.08;;
10056;SDS011;5068;51.286;7.518;2023-09-07T06:09:42;4.03;;;2.40;;
10056;SDS011;5068;51.286;7.518;2023-09-07T06:11:16;2.85;;;2.22;;
10056;SDS011;5068;51.286;7.518;2023-09-07T06:12:49;4.00;;;2.58;;
10056;SDS011;5068;51.286;7.518;2023-09-07T06:14:22;3.53;;;2.15;;
10056;SDS011;5068;51.286;7.518;2023-09-07T06:15:56;3.40;;;2.10;;
10056;SDS011;5068;51.286;7.518;2023-09-07T06:17:30;3.97;;;2.60;;
10056;SDS011;5068;51.286;7.518;2023-09-07T06:19:05;2.67;;;2.20;;
10056;SDS011;5068;51.286;7.518;2023-09-07T06:20:39;2.97;;;2.20;;
10056;SDS011;5068;51.286;7.518;2023-09-07T06:22:13;2.83;;;2.10;;
10056;SDS011;5068;51.286;7.518;2023-09-07T06:23:45;2.58;;;2.00;;
10056;SDS011;5068;51.286;7.518;2023-09-07T06:25:19;3.33;;;2.40;;
10056;SDS011;5068;51.286;7.518;2023-09-07T06:26:54;3.15;;;2.20;;
10056;SDS011;5068;51.286;7.518;2023-09-07T06:28:28;3.78;;;2.42;;
10056;SDS011;5068;51.286;7.518;2023-09-07T06:30:03;4.65;;;2.40;;
10056;SDS011;5068;51.286;7.518;2023-09-07T06:33:11;2.35;;;1.90;;
10056;SDS011;5068;51.286;7.518;2023-09-07T06:34:46;3.42;;;2.40;;
10056;SDS011;5068;51.286;7.518;2023-09-07T06:36:19;3.33;;;1.90;;
10056;SDS011;5068;51.286;7.518;2023-09-07T06:38:08;3.42;;;2.30;;
10056;SDS011;5068;51.286;7.518;2023-09-07T06:39:45;5.78;;;2.95;;
10056;SDS011;5068;51.286;7.518;2023-09-07T06:41:19;3.20;;;2.70;;
10056;SDS011;5068;51.286;7.518;2023-09-07T06:42:52;4.20;;;3.25;;
10056;SDS011;5068;51.286;7.518;2023-09-07T06:44:28;3.70;;;2.35;;
10056;SDS011;5068;51.286;7.518;2023-09-07T06:46:02;3.25;;;2.40;;
10056;SDS011;5068;51.286;7.518;2023-09-07T06:47:39;2.95;;;2.08;;
10056;SDS011;5068;51.286;7.518;2023-09-07T06:49:13;3.10;;;2.38;;
10056;SDS011;5068;51.286;7.518;2023-09-07T06:50:48;3.15;;;2.30;;
10056;SDS011;5068;51.286;7.518;2023-09-07T06:52:22;2.92;;;2.22;;
10056;SDS011;5068;51.286;7.518;2023-09-07T06:53:55;3.25;;;2.45;;
10056;SDS011;5068;51.286;7.518;2023-09-07T06:55:30;3.40;;;2.40;;
10056;SDS011;5068;51.286;7.518;2023-09-07T06:57:06;3.13;;;2.40;;
10056;SDS011;5068;51.286;7.518;2023-09-07T06:58:39;2.92;;;2.33;;
10056;SDS011;5068;51.286;7.518;2023-09-07T07:00:13;3.08;;;2.75;;
10056;SDS011;5068;51.286;7.518;2023-09-07T07:01:47;3.65;;;2.47;;
10056;SDS011;5068;51.286;7.518;2023-09-07T07:03:20;3.15;;;2.53;;
10056;SDS011;5068;51.286;7.518;2023-09-07T07:04:54;4.35;;;2.70;;
10056;SDS011;5068;51.286;7.518;2023-09-07T07:06:28;4.15;;;2.40;;
10056;SDS011;5068;51.286;7.518;2023-09-07T07:08:03;3.78;;;2.55;;
10056;SDS011;5068;51.286;7.518;2023-09-07T07:09:37;4.60;;;3.00;;
10056;SDS011;5068;51.286;7.518;2023-09-07T07:11:10;6.15;;;2.83;;
10056;SDS011;5068;51.286;7.518;2023-09-07T07:12:44;3.85;;;2.47;;
10056;SDS011;5068;51.286;7.518;2023-09-07T07:14:17;4.72;;;3.20;;
10056;SDS011;5068;51.286;7.518;2023-09-07T07:15:50;3.15;;;2.40;;
10056;SDS011;5068;51.286;7.518;2023-09-07T07:17:42;3.78;;;2.72;;
10056;SDS011;5068;51.286;7.518;2023-09-07T07:19:16;3.75;;;2.53;;
10056;SDS011;5068;51.286;7.518;2023-09-07T07:20:49;3.80;;;2.80;;
10056;SDS011;5068;51.286;7.518;2023-09-07T07:22:24;3.83;;;3.03;;
10056;SDS011;5068;51.286;7.518;2023-09-07T07:23:57;3.80;;;2.60;;
10056;SDS011;5068;51.286;7.518;2023-09-07T07:25:31;3.05;;;2.63;;
10056;SDS011;5068;51.286;7.518;2023-09-07T07:27:05;4.20;;;2.95;;
10056;SDS011;5068;51.286;7.518;2023-09-07T07:28:39;3.55;;;2.55;;
10056;SDS011;5068;51.286;7.518;2023-09-07T07:30:26;4.32;;;2.80;;
10056;SDS011;5068;51.286;7.518;2023-09-07T07:32:01;4.10;;;2.88;;
10056;SDS011;5068;51.286;7.518;2023-09-07T07:33:37;4.60;;;3.13;;
10056;SDS011;5068;51.286;7.518;2023-09-07T07:35:09;4.50;;;2.95;;
10056;SDS011;5068;51.286;7.518;2023-09-07T07:36:43;3.00;;;2.70;;
10056;SDS011;5068;51.286;7.518;2023-09-07T07:38:31;3.50;;;2.80;;
10056;SDS011;5068;51.286;7.518;2023-09-07T07:40:20;3.63;;;2.43;;
10056;SDS011;5068;51.286;7.518;2023-09-07T07:41:54;3.92;;;2.80;;
10056;SDS011;5068;51.286;7.518;2023-09-07T07:43:27;3.15;;;2.70;;
10056;SDS011;5068;51.286;7.518;2023-09-07T07:45:01;4.75;;;2.80;;
10056;SDS011;5068;51.286;7.518;2023-09-07T07:46:35;3.60;;;2.83;;
10056;SDS011;5068;51.286;7.518;2023-09-07T07:48:09;3.42;;;2.70;;
10056;SDS011;5068;51.286;7.518;2023-09-07T07:49:44;3.28;;;2.85;;
10056;SDS011;5068;51.286;7.518;2023-09-07T07:51:18;5.05;;;2.90;;
10056;SDS011;5068;51.286;7.518;2023-09-07T07:52:53;3.50;;;3.13;;
10056;SDS011;5068;51.286;7.518;2023-09-07T07:54:28;3.17;;;2.88;;
10056;SDS011;5068;51.286;7.518;2023-09-07T07:56:04;3.35;;;2.90;;
10056;SDS011;5068;51.286;7.518;2023-09-07T07:57:37;2.90;;;2.60;;
10056;SDS011;5068;51.286;7.518;2023-09-07T07:59:13;3.40;;;2.42;;
10056;SDS011;5068;51.286;7.518;2023-09-07T08:00:46;4.55;;;3.15;;
10056;SDS011;5068;51.286;7.518;2023-09-07T08:02:25;3.97;;;2.65;;
10056;SDS011;5068;51.286;7.518;2023-09-07T08:03:59;3.78;;;2.42;;
10056;SDS011;5068;51.286;7.518;2023-09-07T08:05:36;3.15;;;2.25;;
10056;SDS011;5068;51.286;7.518;2023-09-07T08:07:12;3.15;;;2.72;;
10056;SDS011;5068;51.286;7.518;2023-09-07T08:08:44;6.20;;;3.30;;
10056;SDS011;5068;51.286;7.518;2023-09-07T08:10:20;3.50;;;2.88;;
10056;SDS011;5068;51.286;7.518;2023-09-07T08:11:53;4.43;;;3.50;;
10056;SDS011;5068;51.286;7.518;2023-09-07T08:13:29;5.40;;;3.05;;
10056;SDS011;5068;51.286;7.518;2023-09-07T08:15:03;4.28;;;2.83;;
10056;SDS011;5068;51.286;7.518;2023-09-07T08:16:37;4.00;;;2.70;;
10056;SDS011;5068;51.286;7.518;2023-09-07T08:18:12;3.78;;;2.85;;
10056;SDS011;5068;51.286;7.518;2023-09-07T08:19:45;3.15;;;2.78;;
10056;SDS011;5068;51.286;7.518;2023-09-07T08:21:20;4.35;;;3.00;;
10056;SDS011;5068;51.286;7.518;2023-09-07T08:22:53;4.18;;;2.70;;
10056;SDS011;5068;51.286;7.518;2023-09-07T08:24:26;3.92;;;2.85;;
10056;SDS011;5068;51.286;7.518;2023-09-07T08:26:00;4.72;;;3.00;;
10056;SDS011;5068;51.286;7.518;2023-09-07T08:27:35;3.67;;;3.00;;
10056;SDS011;5068;51.286;7.518;2023-09-07T08:29:08;4.63;;;2.95;;
10056;SDS011;5068;51.286;7.518;2023-09-07T08:30:42;3.53;;;2.70;;
10056;SDS011;5068;51.286;7.518;2023-09-07T08:32:16;4.25;;;3.10;;
10056;SDS011;5068;51.286;7.518;2023-09-07T08:33:49;3.65;;;3.03;;
10056;SDS011;5068;51.286;7.518;2023-09-07T08:35:23;3.78;;;2.47;;
10056;SDS011;5068;51.286;7.518;2023-09-07T08:36:59;3.28;;;2.60;;
10056;SDS011;5068;51.286;7.518;2023-09-07T08:38:32;2.92;;;2.60;;
10056;SDS011;5068;51.286;7.518;2023-09-07T08:40:06;4.97;;;3.47;;
10056;SDS011;5068;51.286;7.518;2023-09-07T08:41:42;4.55;;;2.88;;
10056;SDS011;5068;51.286;7.518;2023-09-07T08:43:32;3.30;;;3.00;;
10056;SDS011;5068;51.286;7.518;2023-09-07T08:45:13;3.70;;;3.40;;
10056;SDS011;5068;51.286;7.518;2023-09-07T08:46:53;3.67;;;3.10;;
10056;SDS011;5068;51.286;7.518;2023-09-07T08:48:28;4.18;;;3.75;;
10056;SDS011;5068;51.286;7.518;2023-09-07T08:50:05;3.83;;;3.42;;
10056;SDS011;5068;51.286;7.518;2023-09-07T08:51:39;3.85;;;3.45;;
10056;SDS011;5068;51.286;7.518;2023-09-07T08:53:13;4.18;;;3.50;;
10056;SDS011;5068;51.286;7.518;2023-09-07T08:54:45;3.70;;;3.40;;
10056;SDS011;5068;51.286;7.518;2023-09-07T08:56:21;4.80;;;3.78;;
10056;SDS011;5068;51.286;7.518;2023-09-07T08:57:55;4.10;;;3.80;;
10056;SDS011;5068;51.286;7.518;2023-09-07T08:59:29;3.50;;;3.20;;
10056;SDS011;5068;51.286;7.518;2023-09-07T09:01:02;3.38;;;3.03;;
10056;SDS011;5068;51.286;7.518;2023-09-07T09:02:38;3.25;;;2.95;;
10056;SDS011;5068;51.286;7.518;2023-09-07T09:04:12;4.90;;;3.15;;
10056;SDS011;5068;51.286;7.518;2023-09-07T09:05:46;3.85;;;3.55;;
10056;SDS011;5068;51.286;7.518;2023-09-07T09:07:23;4.95;;;3.70;;
10056;SDS011;5068;51.286;7.518;2023-09-07T09:08:56;3.33;;;2.42;;
10056;SDS011;5068;51.286;7.518;2023-09-07T09:10:30;3.80;;;3.38;;
10056;SDS011;5068;51.286;7.518;2023-09-07T09:12:07;4.35;;;3.40;;
10056;SDS011;5068;51.286;7.518;2023-09-07T09:13:43;5.95;;;4.22;;
10056;SDS011;5068;51.286;7.518;2023-09-07T09:16:49;3.90;;;3.50;;
10056;SDS011;5068;51.286;7.518;2023-09-07T09:18:23;5.40;;;3.88;;
10056;SDS011;5068;51.286;7.518;2023-09-07T09:19:58;4.00;;;2.92;;
10056;SDS011;5068;51.286;7.518;2023-09-07T09:21:31;4.20;;;3.83;;
10056;SDS011;5068;51.286;7.518;2023-09-07T09:23:07;4.13;;;3.80;;
10056;SDS011;5068;51.286;7.518;2023-09-07T09:24:43;4.93;;;3.90;;
10056;SDS011;5068;51.286;7.518;2023-09-07T09:26:16;3.47;;;2.90;;
10056;SDS011;5068;51.286;7.518;2023-09-07T09:27:50;4.13;;;3.72;;
10056;SDS011;5068;51.286;7.518;2023-09-07T09:29:25;4.00;;;3.65;;
10056;SDS011;5068;51.286;7.518;2023-09-07T09:30:59;4.40;;;4.00;;
10056;SDS011;5068;51.286;7.518;2023-09-07T09:32:34;4.90;;;4.38;;
10056;SDS011;5068;51.286;7.518;2023-09-07T09:34:08;4.20;;;3.80;;
10056;SDS011;5068;51.286;7.518;2023-09-07T09:35:42;4.18;;;3.78;;
10056;SDS011;5068;51.286;7.518;2023-09-07T09:37:16;4.38;;;3.97;;
10056;SDS011;5068;51.286;7.518;2023-09-07T09:38:51;4.38;;;4.00;;
10056;SDS011;5068;51.286;7.518;2023-09-07T09:40:25;4.15;;;3.80;;